Timothy C. Allen — WDD4357 — position and weather

sailwx.info

Track history (hours):
 
Tides and Currents Weather Stations Pressure Air Temp Water Temp Dewpoint Dewpoint Depression Visibility Wind Speed Wind Dir Waves Ship Positions

Timothy C. Allen

Owner: American Commercial Lines LLC, Jeffersonville, IN. More information available from US FCC via Universal Licensing System and Coast Guard Vessel Documentation Center.

Last reported at 2017-Dec-18 03:01 UTC. Time now 2017-Dec-18 03:14 UTC.
Position N 29°37' W 095°02'.

Length 37 m; draft 2.9 m.

Type: Towing. MMSI: 367143690.

Date/timePositionNaut miles runAvg speedWind from/ knotsBaromVisibWave heightAir tempDewpointWater temp
2017-Dec-18 03:01N 29°37' W 095°02'0 0.0
2017-Dec-18 02:31N 29°37' W 095°02'0 0.0
2017-Dec-18 02:00N 29°37' W 095°02'0 0.0
2017-Dec-18 01:31N 29°37' W 095°02'0 0.0
2017-Dec-18 01:01N 29°37' W 095°02'0 0.0
2017-Dec-18 00:31N 29°37' W 095°02'0 0.0
2017-Dec-18 00:00N 29°37' W 095°02'0 0.0
2017-Dec-17 23:31N 29°37' W 095°02'0 0.0
2017-Dec-17 23:01N 29°37' W 095°02'0 0.0
2017-Dec-17 22:30N 29°37' W 095°02'0 0.0
2017-Dec-17 22:00N 29°37' W 095°02'0 0.0
2017-Dec-17 21:31N 29°37' W 095°02'0 0.0
2017-Dec-17 21:01N 29°37' W 095°02'0 0.0
2017-Dec-17 20:30N 29°37' W 095°02'0 0.0
2017-Dec-17 20:01N 29°37' W 095°02'0 0.0
2017-Dec-17 19:31N 29°37' W 095°02'0 0.0
2017-Dec-17 19:01N 29°37' W 095°02'0 0.0
2017-Dec-17 18:31N 29°37' W 095°02'0 0.0
2017-Dec-17 18:00N 29°37' W 095°02'0 0.0
2017-Dec-17 17:30N 29°37' W 095°02'0 0.0
2017-Dec-17 17:00N 29°37' W 095°02'0 0.0
2017-Dec-17 16:31N 29°37' W 095°02'0 0.0
2017-Dec-17 16:00N 29°37' W 095°02'0 0.0
2017-Dec-17 15:31N 29°37' W 095°02'0 0.0
2017-Dec-17 15:00N 29°37' W 095°02'0 0.0
2017-Dec-17 14:30N 29°37' W 095°02'0 0.1
2017-Dec-17 14:00N 29°37' W 095°01'1 2.8
2017-Dec-17 13:30N 29°37' W 094°60'3 5.7
2017-Dec-17 13:00N 29°39' W 094°58'5 9.4
2017-Dec-17 12:30N 29°43' W 095°01'4 8.8
2017-Dec-17 12:00N 29°46' W 095°05'0 0.0
2017-Dec-17 10:59N 29°46' W 095°05'0 0.2
2017-Dec-17 10:04N 29°46' W 095°05'0 0.0
2017-Dec-17 05:55N 29°46' W 095°05'0 0.0
2017-Dec-17 05:30N 29°46' W 095°05'0 0.0
2017-Dec-17 04:59N 29°46' W 095°05'0 0.0
2017-Dec-17 04:23N 29°46' W 095°05'0 0.0
2017-Dec-17 00:28N 29°46' W 095°05'0 0.0
2017-Dec-16 23:46N 29°46' W 095°05'0 0.0
2017-Dec-16 22:36N 29°46' W 095°05'0 0.0
2017-Dec-16 21:41N 29°46' W 095°05'0 0.0
2017-Dec-16 21:23N 29°46' W 095°05'0 0.0
2017-Dec-16 19:03N 29°46' W 095°05'0 0.0
2017-Dec-16 18:58N 29°46' W 095°05'0 0.0
2017-Dec-16 18:13N 29°46' W 095°05'0 0.0
2017-Dec-16 15:59N 29°46' W 095°05'0 0.0
2017-Dec-16 15:07N 29°46' W 095°05'0 0.0
2017-Dec-16 14:46N 29°46' W 095°05'0 0.0
2017-Dec-16 14:29N 29°46' W 095°05'0 0.0
2017-Dec-16 14:00N 29°46' W 095°05'0 0.0
2017-Dec-16 13:26N 29°46' W 095°05'0 0.0
2017-Dec-16 12:59N 29°46' W 095°05'0 0.0
2017-Dec-16 12:28N 29°46' W 095°05'0 0.0
2017-Dec-16 11:59N 29°46' W 095°05'0 0.0
2017-Dec-16 11:25N 29°46' W 095°05'0 0.0
2017-Dec-16 10:59N 29°46' W 095°05'0 0.0
2017-Dec-16 10:28N 29°46' W 095°05'0 0.0
2017-Dec-16 10:00N 29°46' W 095°05'0 0.0
2017-Dec-16 09:28N 29°46' W 095°05'0 0.0
2017-Dec-16 09:00N 29°46' W 095°05'0 0.0
2017-Dec-16 08:30N 29°46' W 095°05'0 0.0
2017-Dec-16 08:00N 29°46' W 095°05'0 0.0
2017-Dec-16 07:25N 29°46' W 095°05'0 0.0
2017-Dec-16 06:59N 29°46' W 095°05'0 0.0
2017-Dec-16 06:28N 29°46' W 095°05'0 0.0
2017-Dec-16 05:59N 29°46' W 095°05'0 0.0
2017-Dec-16 05:29N 29°46' W 095°05'0 0.0
2017-Dec-16 04:58N 29°46' W 095°05'0 0.0
2017-Dec-16 04:17N 29°46' W 095°05'0 0.0
2017-Dec-16 03:51N 29°46' W 095°05'0 0.0
2017-Dec-16 03:29N 29°46' W 095°05'0 0.0
2017-Dec-16 02:57N 29°46' W 095°05'0 0.0
2017-Dec-16 02:28N 29°46' W 095°05'0 0.0
2017-Dec-16 01:59N 29°46' W 095°05'0 0.0
2017-Dec-16 01:25N 29°46' W 095°05'0 0.0
2017-Dec-16 00:57N 29°46' W 095°05'0 1.0
2017-Dec-16 00:30N 29°46' W 095°06'1 0.8
2017-Dec-15 23:52N 29°46' W 095°06'0 0.0
2017-Dec-15 23:22N 29°46' W 095°06'0 0.0
2017-Dec-15 15:36N 29°46' W 095°06'0 3.4
2017-Dec-15 15:28N 29°45' W 095°06'1 2.6
2017-Dec-15 14:59N 29°45' W 095°04'4 7.5
2017-Dec-15 14:30N 29°43' W 095°01'4 7.2
2017-Dec-15 14:00N 29°40' W 094°59'3 6.7
2017-Dec-15 13:30N 29°37' W 094°58'3 5.1
2017-Dec-15 13:00N 29°37' W 095°01'0 0.2
2017-Dec-15 12:30N 29°37' W 095°02'0 0.0
2017-Dec-15 12:00N 29°37' W 095°02'0 0.0
2017-Dec-15 11:30N 29°37' W 095°02'0 0.0
2017-Dec-15 11:00N 29°37' W 095°02'0 0.0
2017-Dec-15 10:30N 29°37' W 095°02'0 0.0
2017-Dec-15 10:00N 29°37' W 095°02'0 0.0
2017-Dec-15 09:30N 29°37' W 095°02'0 0.0
2017-Dec-15 09:00N 29°37' W 095°02'0 0.0
2017-Dec-15 08:30N 29°37' W 095°02'0 0.0
2017-Dec-15 08:00N 29°37' W 095°02'0 0.0
2017-Dec-15 07:30N 29°37' W 095°02'0 0.0
2017-Dec-15 07:00N 29°37' W 095°02'0 0.0
2017-Dec-15 06:30N 29°37' W 095°02'0 0.0
2017-Dec-15 06:00N 29°37' W 095°02'0 0.0
2017-Dec-15 05:30N 29°37' W 095°02'0 0.0
2017-Dec-15 05:00N 29°37' W 095°02'0 0.0
2017-Dec-15 04:30N 29°37' W 095°02'0 0.0
2017-Dec-15 04:00N 29°37' W 095°02'0 0.0
2017-Dec-15 02:30N 29°37' W 095°02'0 0.0
2017-Dec-15 01:00N 29°37' W 095°02'0 0.0
2017-Dec-15 00:30N 29°37' W 095°02'0 0.0
2017-Dec-14 18:31N 29°37' W 095°02'0 0.0
2017-Dec-14 18:00N 29°37' W 095°02'0 0.0
2017-Dec-14 17:30N 29°37' W 095°02'0 0.0
2017-Dec-14 17:00N 29°37' W 095°02'0 0.1
2017-Dec-14 16:30N 29°37' W 095°01'0 0.1
2017-Dec-14 16:00N 29°37' W 095°01'0 0.0
2017-Dec-14 15:00N 29°37' W 095°01'0 0.0
2017-Dec-14 14:30N 29°37' W 095°01'0 0.3
2017-Dec-14 14:00N 29°37' W 095°01'3 6.6
2017-Dec-14 13:30N 29°38' W 094°58'5 9.6
2017-Dec-14 13:00N 29°42' W 095°01'4 8.6
2017-Dec-14 12:30N 29°45' W 095°04'2 3.0
2017-Dec-14 12:00N 29°46' W 095°06'0 0.2
2017-Dec-14 10:50N 29°46' W 095°05'0 0.0
2017-Dec-14 10:30N 29°46' W 095°05'0 0.0
2017-Dec-14 10:00N 29°46' W 095°05'0 0.0
2017-Dec-14 09:30N 29°46' W 095°05'0 0.0
2017-Dec-14 08:58N 29°46' W 095°05'0 0.0
2017-Dec-14 08:22N 29°46' W 095°05'0 0.0
2017-Dec-14 07:23N 29°46' W 095°05'0 0.0
2017-Dec-14 06:54N 29°46' W 095°05'0 0.0
2017-Dec-14 06:30N 29°46' W 095°05'0 0.0
2017-Dec-14 05:56N 29°46' W 095°05'0 0.0
2017-Dec-14 05:20N 29°46' W 095°05'0 0.0
2017-Dec-14 04:58N 29°46' W 095°05'0 0.0
2017-Dec-14 04:30N 29°46' W 095°05'0 0.1
2017-Dec-14 04:00N 29°46' W 095°05'0 0.6
2017-Dec-14 03:30N 29°46' W 095°06'0 0.0
2017-Dec-14 03:00N 29°46' W 095°06'0 0.0
2017-Dec-14 02:30N 29°46' W 095°06'1 0.3
2017-Dec-14 00:29N 29°46' W 095°06'1 1.4
2017-Dec-13 23:55N 29°46' W 095°05'0 0.2
2017-Dec-13 23:06N 29°46' W 095°05'0 0.0
2017-Dec-13 22:49N 29°46' W 095°05'0 0.6
2017-Dec-13 22:30N 29°46' W 095°05'4 6.8
2017-Dec-13 21:58N 29°44' W 095°02'3 7.0
2017-Dec-13 21:30N 29°42' W 094°59'4 8.0
2017-Dec-13 21:00N 29°38' W 094°58'4 8.0
2017-Dec-13 20:30N 29°34' W 094°55'13 2.0
2017-Dec-13 14:18N 29°22' W 094°55'0 0.0
2017-Dec-13 13:58N 29°22' W 094°55'0 0.0
2017-Dec-12 06:31N 29°22' W 094°55'0 0.0
2017-Dec-12 03:58N 29°22' W 094°55'0 0.0
2017-Dec-12 02:54N 29°22' W 094°55'0 0.0
2017-Dec-12 02:30N 29°22' W 094°55'0 0.1
2017-Dec-12 01:57N 29°22' W 094°55'0 0.1
2017-Dec-12 01:27N 29°22' W 094°55'2 2.7
2017-Dec-12 00:53N 29°22' W 094°53'2 4.2
2017-Dec-12 00:31N 29°23' W 094°52'3 5.8
2017-Dec-12 00:01N 29°22' W 094°48'3 5.5
2017-Dec-11 23:31N 29°24' W 094°49'3 6.0
2017-Dec-11 23:00N 29°27' W 094°51'3 5.9
2017-Dec-11 22:30N 29°30' W 094°52'3 6.0
2017-Dec-11 22:00N 29°32' W 094°54'3 6.2
2017-Dec-11 21:31N 29°35' W 094°56'3 5.6
2017-Dec-11 21:00N 29°37' W 094°58'3 5.4
2017-Dec-11 20:31N 29°37' W 095°01'0 0.2
2017-Dec-11 20:00N 29°37' W 095°02'0 0.0
2017-Dec-11 19:30N 29°37' W 095°02'0 0.0
2017-Dec-11 19:00N 29°37' W 095°02'0 0.0
2017-Dec-11 18:30N 29°37' W 095°02'0 0.0
2017-Dec-11 18:00N 29°37' W 095°02'0 0.0
2017-Dec-11 17:30N 29°37' W 095°02'0 0.0
2017-Dec-11 17:00N 29°37' W 095°02'0 0.0
2017-Dec-11 16:31N 29°37' W 095°02'0 0.0
2017-Dec-11 16:01N 29°37' W 095°02'0 0.0
2017-Dec-11 15:30N 29°37' W 095°02'0 0.0
2017-Dec-11 15:00N 29°37' W 095°02'0 0.0
2017-Dec-11 14:31N 29°37' W 095°02'0 0.0
2017-Dec-11 14:00N 29°37' W 095°02'0 0.0
2017-Dec-11 13:31N 29°37' W 095°02'0 0.0
2017-Dec-11 13:00N 29°37' W 095°02'0 0.0
2017-Dec-11 12:31N 29°37' W 095°02'0 0.0
2017-Dec-11 12:00N 29°37' W 095°02'0 0.0
2017-Dec-11 11:30N 29°37' W 095°02'0 0.0
2017-Dec-11 11:00N 29°37' W 095°02'0 0.0
2017-Dec-11 10:30N 29°37' W 095°02'0 0.0
2017-Dec-11 10:01N 29°37' W 095°02'0 0.0
2017-Dec-11 09:31N 29°37' W 095°02'0 0.0
2017-Dec-11 09:00N 29°37' W 095°02'0 0.0
2017-Dec-11 08:30N 29°37' W 095°02'0 0.0
2017-Dec-11 08:00N 29°37' W 095°02'0 0.0
2017-Dec-11 07:31N 29°37' W 095°02'0 0.0
2017-Dec-11 07:01N 29°37' W 095°02'0 0.0
2017-Dec-11 06:31N 29°37' W 095°02'0 0.0
2017-Dec-11 06:01N 29°37' W 095°02'0 0.0
2017-Dec-11 05:31N 29°37' W 095°02'0 0.0
2017-Dec-11 05:01N 29°37' W 095°02'0 0.0
2017-Dec-11 04:31N 29°37' W 095°02'0 0.0
2017-Dec-11 04:01N 29°37' W 095°02'0 0.0
2017-Dec-11 03:30N 29°37' W 095°02'0 0.0
2017-Dec-11 03:01N 29°37' W 095°02'0 0.1
2017-Dec-11 02:31N 29°37' W 095°01'3 6.3
2017-Dec-11 02:00N 29°37' W 094°58'4 8.0
2017-Dec-11 01:30N 29°41' W 094°59'4 7.4
2017-Dec-11 01:01N 29°44' W 095°01'4 7.8
2017-Dec-11 00:30N 29°46' W 095°05'0 0.7
2017-Dec-11 00:00N 29°46' W 095°05'0 0.0
2017-Dec-10 23:30N 29°46' W 095°05'0 0.1
2017-Dec-10 20:51N 29°46' W 095°05'1 0.2
2017-Dec-10 17:58N 29°45' W 095°06'1 0.2
2017-Dec-10 15:07N 29°46' W 095°05'0 0.0
2017-Dec-10 15:00N 29°46' W 095°05'0 0.0
2017-Dec-10 14:26N 29°46' W 095°05'0 0.0
2017-Dec-10 13:54N 29°46' W 095°05'0 0.0
2017-Dec-10 13:28N 29°46' W 095°05'0 0.0
2017-Dec-10 11:40N 29°46' W 095°05'0 0.0
2017-Dec-10 11:24N 29°46' W 095°05'0 0.0
2017-Dec-10 10:56N 29°46' W 095°05'0 0.1
2017-Dec-10 10:30N 29°46' W 095°05'2 3.7
2017-Dec-10 10:00N 29°45' W 095°04'3 5.8
2017-Dec-10 09:30N 29°43' W 095°01'3 5.9
2017-Dec-10 09:00N 29°41' W 094°59'3 6.8
2017-Dec-10 08:30N 29°37' W 094°57'3 6.9
2017-Dec-10 08:00N 29°34' W 094°56'12 5.1
2017-Dec-10 05:39N 29°23' W 094°52'3 0.3
2017-Dec-09 18:45N 29°24' W 094°49'2 7.3
2017-Dec-09 18:27N 29°26' W 094°50'3 6.9
2017-Dec-09 18:00N 29°28' W 094°51'3 6.9
2017-Dec-09 17:30N 29°31' W 094°53'3 6.5
2017-Dec-09 17:00N 29°34' W 094°55'3 6.4
2017-Dec-09 16:30N 29°37' W 094°57'3 6.5
2017-Dec-09 16:00N 29°40' W 094°59'3 6.5
2017-Dec-09 15:30N 29°42' W 095°01'3 5.7
2017-Dec-09 15:00N 29°44' W 095°03'2 4.6
2017-Dec-09 14:30N 29°46' W 095°05'0 0.0
2017-Dec-09 14:00N 29°46' W 095°05'0 0.0
2017-Dec-09 13:25N 29°46' W 095°05'0 0.0
2017-Dec-09 13:00N 29°46' W 095°05'0 0.0
2017-Dec-09 12:30N 29°46' W 095°05'0 0.0
2017-Dec-09 12:00N 29°46' W 095°05'0 0.0
2017-Dec-09 11:30N 29°46' W 095°05'0 0.0
2017-Dec-09 11:00N 29°46' W 095°05'0 0.0
2017-Dec-09 10:30N 29°46' W 095°05'0 0.0
2017-Dec-09 10:00N 29°46' W 095°05'0 0.0
2017-Dec-09 09:28N 29°46' W 095°05'0 0.0
2017-Dec-09 08:57N 29°46' W 095°05'0 0.0
2017-Dec-09 08:30N 29°46' W 095°05'0 0.0
2017-Dec-09 08:00N 29°46' W 095°05'0 0.0
2017-Dec-09 07:30N 29°46' W 095°05'0 0.0
2017-Dec-09 07:00N 29°46' W 095°05'0 0.0
2017-Dec-09 06:30N 29°46' W 095°05'0 0.0
2017-Dec-09 06:00N 29°46' W 095°05'0 0.0
2017-Dec-09 05:30N 29°46' W 095°05'1 0.3
2017-Dec-09 03:01N 29°46' W 095°06'0 0.7
2017-Dec-09 03:00N 29°46' W 095°06'1 1.4
2017-Dec-09 02:29N 29°46' W 095°05'0 0.1
2017-Dec-09 01:57N 29°46' W 095°05'1 2.4
2017-Dec-09 01:30N 29°46' W 095°04'4 6.6
2017-Dec-09 00:59N 29°43' W 095°01'4 7.7
2017-Dec-09 00:30N 29°40' W 094°59'5 9.6
2017-Dec-09 00:00N 29°36' W 094°57'5 9.8
2017-Dec-08 23:30N 29°32' W 094°54'  
Track history (hours):
 
Tides and Currents Weather Stations Pressure Air Temp Water Temp Dewpoint Dewpoint Depression Visibility Wind Speed Wind Dir Waves Ship Positions

Timothy C. Allen

Owner: American Commercial Lines LLC, Jeffersonville, IN. More information available from US FCC via Universal Licensing System and Coast Guard Vessel Documentation Center.

Last reported at 2017-Dec-18 03:01 UTC. Time now 2017-Dec-18 03:14 UTC.
Position N 29°37' W 095°02'.

Length 37 m; draft 2.9 m.

Type: Towing. MMSI: 367143690.

Date/timePositionNaut miles runAvg speedWind from/ knotsBaromVisibWave heightAir tempDewpointWater temp
2017-Dec-18 03:01N 29°37' W 095°02'0 0.0
2017-Dec-18 02:31N 29°37' W 095°02'0 0.0
2017-Dec-18 02:00N 29°37' W 095°02'0 0.0
2017-Dec-18 01:31N 29°37' W 095°02'0 0.0
2017-Dec-18 01:01N 29°37' W 095°02'0 0.0
2017-Dec-18 00:31N 29°37' W 095°02'0 0.0
2017-Dec-18 00:00N 29°37' W 095°02'0 0.0
2017-Dec-17 23:31N 29°37' W 095°02'0 0.0
2017-Dec-17 23:01N 29°37' W 095°02'0 0.0
2017-Dec-17 22:30N 29°37' W 095°02'0 0.0
2017-Dec-17 22:00N 29°37' W 095°02'0 0.0
2017-Dec-17 21:31N 29°37' W 095°02'0 0.0
2017-Dec-17 21:01N 29°37' W 095°02'0 0.0
2017-Dec-17 20:30N 29°37' W 095°02'0 0.0
2017-Dec-17 20:01N 29°37' W 095°02'0 0.0
2017-Dec-17 19:31N 29°37' W 095°02'0 0.0
2017-Dec-17 19:01N 29°37' W 095°02'0 0.0
2017-Dec-17 18:31N 29°37' W 095°02'0 0.0
2017-Dec-17 18:00N 29°37' W 095°02'0 0.0
2017-Dec-17 17:30N 29°37' W 095°02'0 0.0
2017-Dec-17 17:00N 29°37' W 095°02'0 0.0
2017-Dec-17 16:31N 29°37' W 095°02'0 0.0
2017-Dec-17 16:00N 29°37' W 095°02'0 0.0
2017-Dec-17 15:31N 29°37' W 095°02'0 0.0
2017-Dec-17 15:00N 29°37' W 095°02'0 0.0
2017-Dec-17 14:30N 29°37' W 095°02'0 0.1
2017-Dec-17 14:00N 29°37' W 095°01'1 2.8
2017-Dec-17 13:30N 29°37' W 094°60'3 5.7
2017-Dec-17 13:00N 29°39' W 094°58'5 9.4
2017-Dec-17 12:30N 29°43' W 095°01'4 8.8
2017-Dec-17 12:00N 29°46' W 095°05'0 0.0
2017-Dec-17 10:59N 29°46' W 095°05'0 0.2
2017-Dec-17 10:04N 29°46' W 095°05'0 0.0
2017-Dec-17 05:55N 29°46' W 095°05'0 0.0
2017-Dec-17 05:30N 29°46' W 095°05'0 0.0
2017-Dec-17 04:59N 29°46' W 095°05'0 0.0
2017-Dec-17 04:23N 29°46' W 095°05'0 0.0
2017-Dec-17 00:28N 29°46' W 095°05'0 0.0
2017-Dec-16 23:46N 29°46' W 095°05'0 0.0
2017-Dec-16 22:36N 29°46' W 095°05'0 0.0
2017-Dec-16 21:41N 29°46' W 095°05'0 0.0
2017-Dec-16 21:23N 29°46' W 095°05'0 0.0
2017-Dec-16 19:03N 29°46' W 095°05'0 0.0
2017-Dec-16 18:58N 29°46' W 095°05'0 0.0
2017-Dec-16 18:13N 29°46' W 095°05'0 0.0
2017-Dec-16 15:59N 29°46' W 095°05'0 0.0
2017-Dec-16 15:07N 29°46' W 095°05'0 0.0
2017-Dec-16 14:46N 29°46' W 095°05'0 0.0
2017-Dec-16 14:29N 29°46' W 095°05'0 0.0
2017-Dec-16 14:00N 29°46' W 095°05'0 0.0
2017-Dec-16 13:26N 29°46' W 095°05'0 0.0
2017-Dec-16 12:59N 29°46' W 095°05'0 0.0
2017-Dec-16 12:28N 29°46' W 095°05'0 0.0
2017-Dec-16 11:59N 29°46' W 095°05'0 0.0
2017-Dec-16 11:25N 29°46' W 095°05'0 0.0
2017-Dec-16 10:59N 29°46' W 095°05'0 0.0
2017-Dec-16 10:28N 29°46' W 095°05'0 0.0
2017-Dec-16 10:00N 29°46' W 095°05'0 0.0
2017-Dec-16 09:28N 29°46' W 095°05'0 0.0
2017-Dec-16 09:00N 29°46' W 095°05'0 0.0
2017-Dec-16 08:30N 29°46' W 095°05'0 0.0
2017-Dec-16 08:00N 29°46' W 095°05'0 0.0
2017-Dec-16 07:25N 29°46' W 095°05'0 0.0
2017-Dec-16 06:59N 29°46' W 095°05'0 0.0
2017-Dec-16 06:28N 29°46' W 095°05'0 0.0
2017-Dec-16 05:59N 29°46' W 095°05'0 0.0
2017-Dec-16 05:29N 29°46' W 095°05'0 0.0
2017-Dec-16 04:58N 29°46' W 095°05'0 0.0
2017-Dec-16 04:17N 29°46' W 095°05'0 0.0
2017-Dec-16 03:51N 29°46' W 095°05'0 0.0
2017-Dec-16 03:29N 29°46' W 095°05'0 0.0
2017-Dec-16 02:57N 29°46' W 095°05'0 0.0
2017-Dec-16 02:28N 29°46' W 095°05'0 0.0
2017-Dec-16 01:59N 29°46' W 095°05'0 0.0
2017-Dec-16 01:25N 29°46' W 095°05'0 0.0
2017-Dec-16 00:57N 29°46' W 095°05'0 1.0
2017-Dec-16 00:30N 29°46' W 095°06'1 0.8
2017-Dec-15 23:52N 29°46' W 095°06'0 0.0
2017-Dec-15 23:22N 29°46' W 095°06'0 0.0
2017-Dec-15 15:36N 29°46' W 095°06'0 3.4
2017-Dec-15 15:28N 29°45' W 095°06'1 2.6
2017-Dec-15 14:59N 29°45' W 095°04'4 7.5
2017-Dec-15 14:30N 29°43' W 095°01'4 7.2
2017-Dec-15 14:00N 29°40' W 094°59'3 6.7
2017-Dec-15 13:30N 29°37' W 094°58'3 5.1
2017-Dec-15 13:00N 29°37' W 095°01'0 0.2
2017-Dec-15 12:30N 29°37' W 095°02'0 0.0
2017-Dec-15 12:00N 29°37' W 095°02'0 0.0
2017-Dec-15 11:30N 29°37' W 095°02'0 0.0
2017-Dec-15 11:00N 29°37' W 095°02'0 0.0
2017-Dec-15 10:30N 29°37' W 095°02'0 0.0
2017-Dec-15 10:00N 29°37' W 095°02'0 0.0
2017-Dec-15 09:30N 29°37' W 095°02'0 0.0
2017-Dec-15 09:00N 29°37' W 095°02'0 0.0
2017-Dec-15 08:30N 29°37' W 095°02'0 0.0
2017-Dec-15 08:00N 29°37' W 095°02'0 0.0
2017-Dec-15 07:30N 29°37' W 095°02'0 0.0
2017-Dec-15 07:00N 29°37' W 095°02'0 0.0
2017-Dec-15 06:30N 29°37' W 095°02'0 0.0
2017-Dec-15 06:00N 29°37' W 095°02'0 0.0
2017-Dec-15 05:30N 29°37' W 095°02'0 0.0
2017-Dec-15 05:00N 29°37' W 095°02'0 0.0
2017-Dec-15 04:30N 29°37' W 095°02'0 0.0
2017-Dec-15 04:00N 29°37' W 095°02'0 0.0
2017-Dec-15 02:30N 29°37' W 095°02'0 0.0
2017-Dec-15 01:00N 29°37' W 095°02'0 0.0
2017-Dec-15 00:30N 29°37' W 095°02'0 0.0
2017-Dec-14 18:31N 29°37' W 095°02'0 0.0
2017-Dec-14 18:00N 29°37' W 095°02'0 0.0
2017-Dec-14 17:30N 29°37' W 095°02'0 0.0
2017-Dec-14 17:00N 29°37' W 095°02'0 0.1
2017-Dec-14 16:30N 29°37' W 095°01'0 0.1
2017-Dec-14 16:00N 29°37' W 095°01'0 0.0
2017-Dec-14 15:00N 29°37' W 095°01'0 0.0
2017-Dec-14 14:30N 29°37' W 095°01'0 0.3
2017-Dec-14 14:00N 29°37' W 095°01'3 6.6
2017-Dec-14 13:30N 29°38' W 094°58'5 9.6
2017-Dec-14 13:00N 29°42' W 095°01'4 8.6
2017-Dec-14 12:30N 29°45' W 095°04'2 3.0
2017-Dec-14 12:00N 29°46' W 095°06'0 0.2
2017-Dec-14 10:50N 29°46' W 095°05'0 0.0
2017-Dec-14 10:30N 29°46' W 095°05'0 0.0
2017-Dec-14 10:00N 29°46' W 095°05'0 0.0
2017-Dec-14 09:30N 29°46' W 095°05'0 0.0
2017-Dec-14 08:58N 29°46' W 095°05'0 0.0
2017-Dec-14 08:22N 29°46' W 095°05'0 0.0
2017-Dec-14 07:23N 29°46' W 095°05'0 0.0
2017-Dec-14 06:54N 29°46' W 095°05'0 0.0
2017-Dec-14 06:30N 29°46' W 095°05'0 0.0
2017-Dec-14 05:56N 29°46' W 095°05'0 0.0
2017-Dec-14 05:20N 29°46' W 095°05'0 0.0
2017-Dec-14 04:58N 29°46' W 095°05'0 0.0
2017-Dec-14 04:30N 29°46' W 095°05'0 0.1
2017-Dec-14 04:00N 29°46' W 095°05'0 0.6
2017-Dec-14 03:30N 29°46' W 095°06'0 0.0
2017-Dec-14 03:00N 29°46' W 095°06'0 0.0
2017-Dec-14 02:30N 29°46' W 095°06'1 0.3
2017-Dec-14 00:29N 29°46' W 095°06'1 1.4
2017-Dec-13 23:55N 29°46' W 095°05'0 0.2
2017-Dec-13 23:06N 29°46' W 095°05'0 0.0
2017-Dec-13 22:49N 29°46' W 095°05'0 0.6
2017-Dec-13 22:30N 29°46' W 095°05'4 6.8
2017-Dec-13 21:58N 29°44' W 095°02'3 7.0
2017-Dec-13 21:30N 29°42' W 094°59'4 8.0
2017-Dec-13 21:00N 29°38' W 094°58'4 8.0
2017-Dec-13 20:30N 29°34' W 094°55'13 2.0
2017-Dec-13 14:18N 29°22' W 094°55'0 0.0
2017-Dec-13 13:58N 29°22' W 094°55'0 0.0
2017-Dec-12 06:31N 29°22' W 094°55'0 0.0
2017-Dec-12 03:58N 29°22' W 094°55'0 0.0
2017-Dec-12 02:54N 29°22' W 094°55'0 0.0
2017-Dec-12 02:30N 29°22' W 094°55'0 0.1
2017-Dec-12 01:57N 29°22' W 094°55'0 0.1
2017-Dec-12 01:27N 29°22' W 094°55'2 2.7
2017-Dec-12 00:53N 29°22' W 094°53'2 4.2
2017-Dec-12 00:31N 29°23' W 094°52'3 5.8
2017-Dec-12 00:01N 29°22' W 094°48'3 5.5
2017-Dec-11 23:31N 29°24' W 094°49'3 6.0
2017-Dec-11 23:00N 29°27' W 094°51'3 5.9
2017-Dec-11 22:30N 29°30' W 094°52'3 6.0
2017-Dec-11 22:00N 29°32' W 094°54'3 6.2
2017-Dec-11 21:31N 29°35' W 094°56'3 5.6
2017-Dec-11 21:00N 29°37' W 094°58'3 5.4
2017-Dec-11 20:31N 29°37' W 095°01'0 0.2
2017-Dec-11 20:00N 29°37' W 095°02'0 0.0
2017-Dec-11 19:30N 29°37' W 095°02'0 0.0
2017-Dec-11 19:00N 29°37' W 095°02'0 0.0
2017-Dec-11 18:30N 29°37' W 095°02'0 0.0
2017-Dec-11 18:00N 29°37' W 095°02'0 0.0
2017-Dec-11 17:30N 29°37' W 095°02'0 0.0
2017-Dec-11 17:00N 29°37' W 095°02'0 0.0
2017-Dec-11 16:31N 29°37' W 095°02'0 0.0
2017-Dec-11 16:01N 29°37' W 095°02'0 0.0
2017-Dec-11 15:30N 29°37' W 095°02'0 0.0
2017-Dec-11 15:00N 29°37' W 095°02'0 0.0
2017-Dec-11 14:31N 29°37' W 095°02'0 0.0
2017-Dec-11 14:00N 29°37' W 095°02'0 0.0
2017-Dec-11 13:31N 29°37' W 095°02'0 0.0
2017-Dec-11 13:00N 29°37' W 095°02'0 0.0
2017-Dec-11 12:31N 29°37' W 095°02'0 0.0
2017-Dec-11 12:00N 29°37' W 095°02'0 0.0
2017-Dec-11 11:30N 29°37' W 095°02'0 0.0
2017-Dec-11 11:00N 29°37' W 095°02'0 0.0
2017-Dec-11 10:30N 29°37' W 095°02'0 0.0
2017-Dec-11 10:01N 29°37' W 095°02'0 0.0
2017-Dec-11 09:31N 29°37' W 095°02'0 0.0
2017-Dec-11 09:00N 29°37' W 095°02'0 0.0
2017-Dec-11 08:30N 29°37' W 095°02'0 0.0
2017-Dec-11 08:00N 29°37' W 095°02'0 0.0
2017-Dec-11 07:31N 29°37' W 095°02'0 0.0
2017-Dec-11 07:01N 29°37' W 095°02'0 0.0
2017-Dec-11 06:31N 29°37' W 095°02'0 0.0
2017-Dec-11 06:01N 29°37' W 095°02'0 0.0
2017-Dec-11 05:31N 29°37' W 095°02'0 0.0
2017-Dec-11 05:01N 29°37' W 095°02'0 0.0
2017-Dec-11 04:31N 29°37' W 095°02'0 0.0
2017-Dec-11 04:01N 29°37' W 095°02'0 0.0
2017-Dec-11 03:30N 29°37' W 095°02'0 0.0
2017-Dec-11 03:01N 29°37' W 095°02'0 0.1
2017-Dec-11 02:31N 29°37' W 095°01'3 6.3
2017-Dec-11 02:00N 29°37' W 094°58'4 8.0
2017-Dec-11 01:30N 29°41' W 094°59'4 7.4
2017-Dec-11 01:01N 29°44' W 095°01'4 7.8
2017-Dec-11 00:30N 29°46' W 095°05'0 0.7
2017-Dec-11 00:00N 29°46' W 095°05'0 0.0
2017-Dec-10 23:30N 29°46' W 095°05'0 0.1
2017-Dec-10 20:51N 29°46' W 095°05'1 0.2
2017-Dec-10 17:58N 29°45' W 095°06'1 0.2
2017-Dec-10 15:07N 29°46' W 095°05'0 0.0
2017-Dec-10 15:00N 29°46' W 095°05'0 0.0
2017-Dec-10 14:26N 29°46' W 095°05'0 0.0
2017-Dec-10 13:54N 29°46' W 095°05'0 0.0
2017-Dec-10 13:28N 29°46' W 095°05'0 0.0
2017-Dec-10 11:40N 29°46' W 095°05'0 0.0
2017-Dec-10 11:24N 29°46' W 095°05'0 0.0
2017-Dec-10 10:56N 29°46' W 095°05'0 0.1
2017-Dec-10 10:30N 29°46' W 095°05'2 3.7
2017-Dec-10 10:00N 29°45' W 095°04'3 5.8
2017-Dec-10 09:30N 29°43' W 095°01'3 5.9
2017-Dec-10 09:00N 29°41' W 094°59'3 6.8
2017-Dec-10 08:30N 29°37' W 094°57'3 6.9
2017-Dec-10 08:00N 29°34' W 094°56'12 5.1
2017-Dec-10 05:39N 29°23' W 094°52'3 0.3
2017-Dec-09 18:45N 29°24' W 094°49'2 7.3
2017-Dec-09 18:27N 29°26' W 094°50'3 6.9
2017-Dec-09 18:00N 29°28' W 094°51'3 6.9
2017-Dec-09 17:30N 29°31' W 094°53'3 6.5
2017-Dec-09 17:00N 29°34' W 094°55'3 6.4
2017-Dec-09 16:30N 29°37' W 094°57'3 6.5
2017-Dec-09 16:00N 29°40' W 094°59'3 6.5
2017-Dec-09 15:30N 29°42' W 095°01'3 5.7
2017-Dec-09 15:00N 29°44' W 095°03'2 4.6
2017-Dec-09 14:30N 29°46' W 095°05'0 0.0
2017-Dec-09 14:00N 29°46' W 095°05'0 0.0
2017-Dec-09 13:25N 29°46' W 095°05'0 0.0
2017-Dec-09 13:00N 29°46' W 095°05'0 0.0
2017-Dec-09 12:30N 29°46' W 095°05'0 0.0
2017-Dec-09 12:00N 29°46' W 095°05'0 0.0
2017-Dec-09 11:30N 29°46' W 095°05'0 0.0
2017-Dec-09 11:00N 29°46' W 095°05'0 0.0
2017-Dec-09 10:30N 29°46' W 095°05'0 0.0
2017-Dec-09 10:00N 29°46' W 095°05'0 0.0
2017-Dec-09 09:28N 29°46' W 095°05'0 0.0
2017-Dec-09 08:57N 29°46' W 095°05'0 0.0
2017-Dec-09 08:30N 29°46' W 095°05'0 0.0
2017-Dec-09 08:00N 29°46' W 095°05'0 0.0
2017-Dec-09 07:30N 29°46' W 095°05'0 0.0
2017-Dec-09 07:00N 29°46' W 095°05'0 0.0
2017-Dec-09 06:30N 29°46' W 095°05'0 0.0
2017-Dec-09 06:00N 29°46' W 095°05'0 0.0
2017-Dec-09 05:30N 29°46' W 095°05'1 0.3
2017-Dec-09 03:01N 29°46' W 095°06'0 0.7
2017-Dec-09 03:00N 29°46' W 095°06'1 1.4
2017-Dec-09 02:29N 29°46' W 095°05'0 0.1
2017-Dec-09 01:57N 29°46' W 095°05'1 2.4
2017-Dec-09 01:30N 29°46' W 095°04'4 6.6
2017-Dec-09 00:59N 29°43' W 095°01'4 7.7
2017-Dec-09 00:30N 29°40' W 094°59'5 9.6
2017-Dec-09 00:00N 29°36' W 094°57'5 9.8
2017-Dec-08 23:30N 29°32' W 094°54'  

Dump ship's entire track history